createdAt,value
2017-06-27T00:00:50.975Z,72.24
2017-06-27T00:01:52.776Z,72.33
2017-06-27T00:02:54.660Z,72.30
2017-06-27T00:03:56.541Z,72.30
2017-06-27T00:04:58.406Z,72.11
2017-06-27T00:06:12.565Z,72.78
2017-06-27T00:07:14.442Z,72.78
2017-06-27T00:08:16.304Z,72.30
2017-06-27T00:09:18.189Z,72.39
2017-06-27T00:10:19.986Z,72.59
2017-06-27T00:11:21.788Z,72.39
2017-06-27T00:12:23.667Z,72.30
2017-06-27T00:13:25.528Z,72.59
2017-06-27T00:14:27.406Z,72.20
2017-06-27T00:15:41.536Z,72.30
2017-06-27T00:16:43.401Z,72.39
2017-06-27T00:17:45.280Z,72.30
2017-06-27T00:18:47.143Z,72.20
2017-06-27T00:19:48.964Z,72.78
2017-06-27T00:20:50.763Z,72.68
2017-06-27T00:21:52.647Z,72.68
2017-06-27T00:22:54.526Z,72.59
2017-06-27T00:23:56.409Z,72.30
2017-06-27T00:25:10.573Z,72.68
2017-06-27T00:26:12.447Z,72.30
2017-06-27T00:27:14.313Z,72.59
2017-06-27T00:28:16.191Z,72.30
2017-06-27T00:29:18.008Z,72.49
2017-06-27T00:30:19.819Z,72.30
2017-06-27T00:31:21.664Z,72.59
2017-06-27T00:32:23.460Z,72.59
2017-06-27T00:33:25.283Z,72.74
2017-06-27T00:34:39.436Z,72.84
2017-06-27T00:35:41.322Z,72.74
2017-06-27T00:36:43.207Z,72.94
2017-06-27T00:37:45.093Z,72.94
2017-06-27T00:38:46.917Z,72.74
2017-06-27T00:39:48.735Z,73.03
2017-06-27T00:40:50.601Z,72.94
2017-06-27T00:41:52.480Z,72.84
2017-06-27T00:42:54.352Z,72.64
2017-06-27T00:44:08.516Z,72.84
2017-06-27T00:45:10.391Z,73.03
2017-06-27T00:46:12.256Z,72.94
2017-06-27T00:47:14.109Z,73.03
2017-06-27T00:48:15.920Z,73.41
2017-06-27T00:49:17.738Z,73.51
2017-06-27T00:50:19.617Z,73.32
2017-06-27T00:51:21.483Z,73.22
2017-06-27T00:52:23.364Z,73.13
2017-06-27T00:53:37.516Z,72.64
2017-06-27T00:54:39.391Z,73.13
2017-06-27T00:55:41.257Z,72.74
2017-06-27T00:56:43.141Z,72.94
2017-06-27T00:57:44.965Z,72.94
2017-06-27T00:58:46.778Z,72.64
2017-06-27T00:59:48.645Z,72.84
2017-06-27T01:00:50.527Z,72.94
2017-06-27T01:01:52.409Z,72.84
2017-06-27T01:03:06.561Z,72.84
2017-06-27T01:04:08.424Z,72.84
2017-06-27T01:05:10.286Z,72.94
2017-06-27T01:06:12.152Z,72.64
2017-06-27T01:07:13.975Z,73.03
2017-06-27T01:08:15.774Z,73.13
2017-06-27T01:09:17.651Z,73.03
2017-06-27T01:10:19.515Z,72.94
2017-06-27T01:11:21.369Z,73.03
2017-06-27T01:12:35.505Z,72.64
2017-06-27T01:13:37.367Z,72.59
2017-06-27T01:14:39.243Z,72.45
2017-06-27T01:15:41.106Z,72.94
2017-06-27T01:16:42.931Z,72.64
2017-06-27T01:17:44.730Z,73.41
2017-06-27T01:18:46.607Z,73.32
2017-06-27T01:19:48.470Z,73.61
2017-06-27T01:20:50.349Z,73.70
2017-06-27T01:22:04.498Z,74.33
2017-06-27T01:23:06.364Z,74.18
2017-06-27T01:24:08.250Z,74.05
2017-06-27T01:25:10.132Z,74.62
2017-06-27T01:26:11.950Z,74.18
2017-06-27T01:27:13.751Z,74.18
2017-06-27T01:28:15.610Z,73.90
2017-06-27T01:29:17.488Z,74.08
2017-06-27T01:30:19.349Z,73.80
2017-06-27T01:31:33.485Z,73.32
2017-06-27T01:32:35.369Z,73.61
2017-06-27T01:33:37.250Z,72.74
2017-06-27T01:34:39.107Z,72.94
2017-06-27T01:35:40.909Z,72.88
2017-06-27T01:36:42.725Z,73.07
2017-06-27T01:37:44.581Z,72.68
2017-06-27T01:38:46.450Z,72.59
2017-06-27T01:39:48.326Z,72.59
2017-06-27T01:41:02.461Z,72.78
2017-06-27T01:42:04.339Z,72.68
2017-06-27T01:43:06.216Z,72.78
2017-06-27T01:44:08.078Z,72.78
2017-06-27T01:45:09.898Z,72.49
2017-06-27T01:46:11.714Z,72.59
2017-06-27T01:47:13.573Z,72.49
2017-06-27T01:48:15.455Z,72.68
2017-06-27T01:49:17.337Z,72.78
2017-06-27T01:50:31.468Z,72.68
2017-06-27T01:51:33.331Z,73.16
2017-06-27T01:52:35.193Z,72.78
2017-06-27T01:53:37.053Z,72.59
2017-06-27T01:54:38.880Z,73.07
2017-06-27T01:55:40.699Z,72.97
2017-06-27T01:56:42.575Z,72.97
2017-06-27T01:57:44.438Z,72.97
2017-06-27T01:58:46.301Z,72.88
2017-06-27T02:00:00.429Z,73.07
2017-06-27T02:01:02.293Z,72.88
2017-06-27T02:02:04.147Z,73.26
2017-06-27T02:03:06.003Z,72.97
2017-06-27T02:04:07.811Z,72.97
2017-06-27T02:05:09.631Z,72.78
2017-06-27T02:06:11.493Z,72.68
2017-06-27T02:07:13.372Z,72.49
2017-06-27T02:08:15.232Z,72.59
2017-06-27T02:09:29.379Z,72.78
2017-06-27T02:10:31.239Z,72.78
2017-06-27T02:11:33.122Z,72.49
2017-06-27T02:12:35.002Z,72.78
2017-06-27T02:13:36.826Z,72.88
2017-06-27T02:14:38.628Z,72.39
2017-06-27T02:15:40.504Z,72.49
2017-06-27T02:16:42.360Z,72.88
2017-06-27T02:17:44.217Z,72.68
2017-06-27T02:18:58.355Z,72.88
2017-06-27T02:20:00.231Z,72.78
2017-06-27T02:21:02.094Z,72.97
2017-06-27T02:22:03.970Z,73.07
2017-06-27T02:23:05.769Z,72.97
2017-06-27T02:24:07.567Z,72.97
2017-06-27T02:25:09.431Z,72.78
2017-06-27T02:26:11.314Z,72.78
2017-06-27T02:27:13.193Z,72.97
2017-06-27T02:28:27.346Z,73.45
2017-06-27T02:29:29.229Z,73.35
2017-06-27T02:30:31.109Z,73.74
2017-06-27T02:31:32.971Z,73.74
2017-06-27T02:32:34.773Z,73.26
2017-06-27T02:33:36.595Z,73.55
2017-06-27T02:34:38.476Z,73.55
2017-06-27T02:35:40.353Z,73.74
2017-06-27T02:36:42.217Z,73.74
2017-06-27T02:37:56.368Z,73.65
2017-06-27T02:38:58.225Z,73.07
2017-06-27T02:40:00.151Z,73.07
2017-06-27T02:41:02.062Z,72.78
2017-06-27T02:42:03.874Z,73.00
2017-06-27T02:43:05.680Z,72.88
2017-06-27T02:44:07.560Z,72.91
2017-06-27T02:45:09.439Z,72.53
2017-06-27T02:46:11.298Z,73.26
2017-06-27T02:47:25.414Z,72.97
2017-06-27T02:48:27.279Z,72.78
2017-06-27T02:49:29.148Z,73.74
2017-06-27T02:50:31.011Z,74.18
2017-06-27T02:51:32.833Z,74.76
2017-06-27T02:52:34.642Z,74.85
2017-06-27T02:53:36.520Z,74.76
2017-06-27T02:54:38.390Z,74.57
2017-06-27T02:55:40.271Z,74.66
2017-06-27T02:56:54.407Z,74.85
2017-06-27T02:57:56.294Z,74.47
2017-06-27T02:58:58.178Z,74.41
2017-06-27T03:00:00.045Z,75.08
2017-06-27T03:01:01.867Z,73.93
2017-06-27T03:02:03.671Z,74.22
2017-06-27T03:03:05.558Z,74.31
2017-06-27T03:04:07.442Z,74.79
2017-06-27T03:05:09.326Z,74.89
2017-06-27T03:06:23.484Z,74.60
2017-06-27T03:07:25.370Z,75.23
2017-06-27T03:08:27.231Z,75.23
2017-06-27T03:09:29.092Z,75.27
2017-06-27T03:10:30.900Z,75.08
2017-06-27T03:11:32.705Z,74.98
2017-06-27T03:12:34.593Z,74.60
2017-06-27T03:13:36.474Z,74.41
2017-06-27T03:14:38.360Z,74.41
2017-06-27T03:15:52.500Z,74.12
2017-06-27T03:16:54.379Z,73.93
2017-06-27T03:17:56.249Z,74.22
2017-06-27T03:18:58.115Z,74.41
2017-06-27T03:19:59.940Z,74.22
2017-06-27T03:21:01.765Z,73.83
2017-06-27T03:22:03.651Z,73.83
2017-06-27T03:23:05.540Z,72.68
2017-06-27T03:24:07.423Z,73.16
2017-06-27T03:25:21.584Z,72.88
2017-06-27T03:26:23.466Z,72.97
2017-06-27T03:27:25.351Z,72.97
2017-06-27T03:28:27.213Z,72.91
2017-06-27T03:29:29.023Z,72.81
2017-06-27T03:30:30.847Z,73.00
2017-06-27T03:31:32.732Z,73.00
2017-06-27T03:32:34.597Z,72.81
2017-06-27T03:33:36.459Z,73.30
2017-06-27T03:34:50.595Z,72.81
2017-06-27T03:35:52.458Z,72.05
2017-06-27T03:36:54.325Z,72.33
2017-06-27T03:37:56.191Z,72.24
2017-06-27T03:38:58.015Z,72.05
2017-06-27T03:39:59.821Z,71.80
2017-06-27T03:41:01.682Z,71.31
2017-06-27T03:42:03.546Z,70.39
2017-06-27T03:43:05.406Z,70.29
2017-06-27T03:44:19.547Z,69.46
2017-06-27T03:45:21.411Z,68.31
2017-06-27T03:46:23.293Z,67.29
2017-06-27T03:47:25.181Z,66.94
2017-06-27T03:48:27.009Z,65.88
2017-06-27T03:49:28.814Z,65.33
2017-06-27T03:50:30.701Z,64.08
2017-06-27T03:51:32.584Z,63.79
2017-06-27T03:52:34.451Z,63.79
2017-06-27T03:53:48.608Z,63.22
2017-06-27T03:54:50.475Z,63.60
2017-06-27T03:55:52.361Z,63.89
2017-06-27T03:56:54.224Z,63.67
2017-06-27T03:57:56.032Z,64.05
2017-06-27T03:58:57.859Z,64.05
2017-06-27T03:59:59.724Z,64.82
2017-06-27T04:01:01.610Z,64.73
2017-06-27T04:02:03.495Z,65.17
2017-06-27T04:03:17.639Z,65.69
2017-06-27T04:04:19.522Z,65.75
2017-06-27T04:05:21.392Z,65.66
2017-06-27T04:06:23.278Z,65.56
2017-06-27T04:07:25.083Z,65.46
2017-06-27T04:08:26.891Z,65.37
2017-06-27T04:09:28.772Z,65.94
2017-06-27T04:10:30.637Z,65.84
2017-06-27T04:11:32.523Z,66.14
2017-06-27T04:12:46.679Z,65.75
2017-06-27T04:13:48.542Z,66.14
2017-06-27T04:14:50.416Z,66.04
2017-06-27T04:15:52.297Z,66.17
2017-06-27T04:16:54.103Z,66.07
2017-06-27T04:17:55.906Z,66.17
2017-06-27T04:18:57.770Z,66.17
2017-06-27T04:19:59.630Z,65.50
2017-06-27T04:21:01.498Z,65.40
2017-06-27T04:22:15.690Z,65.50
2017-06-27T04:23:17.535Z,65.50
2017-06-27T04:24:19.421Z,65.78
2017-06-27T04:25:21.291Z,66.07
2017-06-27T04:26:23.100Z,65.97
2017-06-27T04:27:24.902Z,66.07
2017-06-27T04:28:26.770Z,66.27
2017-06-27T04:29:28.659Z,65.97
2017-06-27T04:30:30.507Z,65.97
2017-06-27T04:31:44.645Z,66.36
2017-06-27T04:32:46.527Z,66.17
2017-06-27T04:33:48.396Z,66.42
2017-06-27T04:34:50.282Z,66.71
2017-06-27T04:35:52.114Z,66.81
2017-06-27T04:36:53.910Z,67.00
2017-06-27T04:37:55.782Z,67.00
2017-06-27T04:38:57.673Z,66.71
2017-06-27T04:39:59.556Z,66.81
2017-06-27T04:41:13.700Z,66.55
2017-06-27T04:42:15.587Z,66.74
2017-06-27T04:43:17.478Z,65.78
2017-06-27T04:44:19.368Z,65.59
2017-06-27T04:45:21.194Z,65.24
2017-06-27T04:46:23.016Z,64.76
2017-06-27T04:47:24.877Z,64.28
2017-06-27T04:48:26.751Z,64.21
2017-06-27T04:49:28.643Z,62.90
2017-06-27T04:50:42.801Z,61.87
2017-06-27T04:51:44.685Z,61.22
2017-06-27T04:52:46.564Z,59.61
2017-06-27T04:53:48.435Z,57.81
2017-06-27T04:54:50.240Z,56.71
2017-06-27T04:55:52.070Z,55.29
2017-06-27T04:56:53.938Z,54.08
2017-06-27T04:57:55.805Z,52.08
2017-06-27T04:58:57.695Z,50.65
2017-06-27T05:00:11.862Z,49.51
2017-06-27T05:01:13.746Z,48.47
2017-06-27T05:02:15.618Z,48.08
2017-06-27T05:03:17.483Z,47.69
2017-06-27T05:04:19.294Z,47.20
2017-06-27T05:05:21.106Z,47.57
2017-06-27T05:06:22.972Z,47.47
2017-06-27T05:07:24.864Z,48.06
2017-06-27T05:08:26.772Z,48.13
2017-06-27T05:09:40.909Z,48.03
2017-06-27T05:10:42.801Z,47.94
2017-06-27T05:11:44.688Z,48.59
2017-06-27T05:12:46.557Z,48.49
2017-06-27T05:13:48.366Z,49.24
2017-06-27T05:14:50.175Z,50.57
2017-06-27T05:15:52.064Z,50.48
2017-06-27T05:16:53.930Z,50.84
2017-06-27T05:17:55.823Z,51.68
2017-06-27T05:19:09.978Z,51.61
2017-06-27T05:20:11.848Z,50.86
2017-06-27T05:21:13.742Z,50.48
2017-06-27T05:22:15.627Z,50.18
2017-06-27T05:23:17.436Z,49.80
2017-06-27T05:24:19.247Z,49.99
2017-06-27T05:25:21.116Z,49.90
2017-06-27T05:26:22.989Z,49.32
2017-06-27T05:27:24.882Z,49.34
2017-06-27T05:28:39.049Z,48.69
2017-06-27T05:29:40.942Z,47.81
2017-06-27T05:30:42.833Z,47.43
2017-06-27T05:31:44.702Z,47.84
2017-06-27T05:32:46.531Z,47.33
2017-06-27T05:33:48.343Z,47.24
2017-06-27T05:34:50.211Z,47.06
2017-06-27T05:35:52.091Z,45.92
2017-06-27T05:36:53.980Z,45.47
2017-06-27T05:38:08.141Z,44.54
2017-06-27T05:39:10.005Z,44.24
2017-06-27T05:40:11.878Z,43.76
2017-06-27T05:41:13.741Z,44.40
2017-06-27T05:42:15.553Z,46.02
2017-06-27T05:43:17.365Z,47.06
2017-06-27T05:44:19.251Z,47.84
2017-06-27T05:45:21.123Z,47.43
2017-06-27T05:46:22.995Z,47.89
2017-06-27T05:47:37.141Z,49.44
2017-06-27T05:48:39.031Z,50.18
2017-06-27T05:49:40.922Z,50.65
2017-06-27T05:50:42.792Z,51.39
2017-06-27T05:51:44.623Z,52.55
2017-06-27T05:52:46.453Z,52.17
2017-06-27T05:53:48.331Z,52.36
2017-06-27T05:54:50.222Z,52.91
2017-06-27T05:55:52.100Z,53.49
2017-06-27T05:57:06.307Z,53.97
2017-06-27T05:58:08.186Z,53.88
2017-06-27T05:59:10.053Z,54.29
2017-06-27T06:00:11.949Z,54.39
2017-06-27T06:01:13.781Z,53.91
2017-06-27T06:02:15.611Z,53.42
2017-06-27T06:03:17.506Z,53.35
2017-06-27T06:04:19.488Z,53.35
2017-06-27T06:05:21.410Z,52.97
2017-06-27T06:06:35.558Z,52.94
2017-06-27T06:07:37.447Z,52.75
2017-06-27T06:08:39.332Z,52.75
2017-06-27T06:09:41.206Z,53.78
2017-06-27T06:10:43.033Z,53.95
2017-06-27T06:11:44.873Z,54.53
2017-06-27T06:12:46.728Z,55.10
2017-06-27T06:13:48.616Z,55.30
2017-06-27T06:14:50.483Z,55.49
2017-06-27T06:16:04.647Z,55.88
2017-06-27T06:17:06.536Z,56.62
2017-06-27T06:18:08.430Z,56.52
2017-06-27T06:19:10.321Z,57.39
2017-06-27T06:20:12.153Z,57.20
2017-06-27T06:21:13.986Z,56.91
2017-06-27T06:22:15.973Z,57.20
2017-06-27T06:23:17.837Z,57.01
2017-06-27T06:24:19.753Z,57.20
2017-06-27T06:25:33.916Z,56.56
2017-06-27T06:26:35.804Z,56.07
2017-06-27T06:27:37.760Z,56.16
2017-06-27T06:28:39.645Z,56.07
2017-06-27T06:29:41.447Z,56.26
2017-06-27T06:30:43.344Z,56.16
2017-06-27T06:31:45.349Z,56.14
2017-06-27T06:32:47.312Z,56.84
2017-06-27T06:33:49.174Z,57.39
2017-06-27T06:35:03.347Z,56.91
2017-06-27T06:36:05.229Z,56.72
2017-06-27T06:37:07.122Z,56.46
2017-06-27T06:38:08.991Z,56.56
2017-06-27T06:39:10.812Z,56.26
2017-06-27T06:40:12.645Z,55.71
2017-06-27T06:41:14.506Z,55.35
2017-06-27T06:42:16.399Z,54.29
2017-06-27T06:43:18.275Z,53.64
2017-06-27T06:44:32.420Z,53.45
2017-06-27T06:45:34.288Z,53.35
2017-06-27T06:46:36.176Z,52.87
2017-06-27T06:47:38.046Z,52.75
2017-06-27T06:48:39.909Z,52.84
2017-06-27T06:49:41.705Z,53.03
2017-06-27T06:50:43.593Z,53.03
2017-06-27T06:51:45.461Z,53.42
2017-06-27T06:52:47.347Z,53.33
2017-06-27T06:54:01.513Z,53.06
2017-06-27T06:55:03.399Z,52.67
2017-06-27T06:56:05.266Z,51.61
2017-06-27T06:57:07.137Z,51.51
2017-06-27T06:58:08.965Z,51.71
2017-06-27T06:59:10.792Z,51.61
2017-06-27T07:00:12.660Z,50.65
2017-06-27T07:01:14.558Z,50.45
2017-06-27T07:02:16.440Z,50.65
2017-06-27T07:03:30.580Z,50.65
2017-06-27T07:04:32.446Z,51.03
2017-06-27T07:05:34.318Z,50.93
2017-06-27T07:06:36.188Z,52.00
2017-06-27T07:07:38.002Z,51.32
2017-06-27T07:08:39.829Z,51.42
2017-06-27T07:09:41.703Z,51.13
2017-06-27T07:10:43.595Z,51.71
2017-06-27T07:11:45.484Z,51.71
2017-06-27T07:12:59.645Z,52.00
2017-06-27T07:14:01.518Z,51.73
2017-06-27T07:15:03.410Z,50.76
2017-06-27T07:16:05.279Z,50.31
2017-06-27T07:17:07.092Z,49.34
2017-06-27T07:18:08.927Z,48.76
2017-06-27T07:19:10.794Z,48.37
2017-06-27T07:20:12.689Z,48.66
2017-06-27T07:21:14.578Z,48.66
2017-06-27T07:22:28.722Z,48.69
2017-06-27T07:23:30.590Z,48.69
2017-06-27T07:24:32.485Z,48.13
2017-06-27T07:25:34.350Z,47.57
2017-06-27T07:26:36.165Z,47.30
2017-06-27T07:27:37.998Z,47.02
2017-06-27T07:28:39.886Z,45.95
2017-06-27T07:29:41.759Z,45.83
2017-06-27T07:30:43.655Z,45.83
2017-06-27T07:31:57.820Z,46.09
2017-06-27T07:32:59.709Z,46.39
2017-06-27T07:34:01.602Z,46.87
2017-06-27T07:35:03.477Z,46.12
2017-06-27T07:36:05.309Z,46.02
2017-06-27T07:37:07.140Z,46.87
2017-06-27T07:38:09.014Z,46.84
2017-06-27T07:39:10.908Z,47.21
2017-06-27T07:40:12.798Z,47.69
2017-06-27T07:41:26.942Z,48.08
2017-06-27T07:42:28.815Z,48.06
2017-06-27T07:43:30.710Z,48.23
2017-06-27T07:44:32.604Z,49.27
2017-06-27T07:45:34.435Z,49.55
2017-06-27T07:46:36.264Z,49.46
2017-06-27T07:47:38.156Z,50.04
2017-06-27T07:48:40.047Z,49.97
2017-06-27T07:49:41.917Z,49.27
2017-06-27T07:50:56.134Z,49.49
2017-06-27T07:51:58.004Z,49.39
2017-06-27T07:52:59.893Z,49.29
2017-06-27T07:54:01.767Z,49.65
2017-06-27T07:55:03.595Z,49.46
2017-06-27T07:56:05.407Z,49.39
2017-06-27T07:57:07.278Z,49.49
2017-06-27T07:58:09.174Z,49.32
2017-06-27T07:59:11.058Z,49.63
2017-06-27T08:00:25.202Z,49.44
2017-06-27T08:01:27.077Z,48.95
2017-06-27T08:02:28.962Z,49.15
2017-06-27T08:03:30.831Z,48.57
2017-06-27T08:04:32.643Z,48.93
2017-06-27T08:05:34.453Z,49.02
2017-06-27T08:06:36.344Z,48.66
2017-06-27T08:07:38.235Z,48.57
2017-06-27T08:08:40.127Z,48.66
2017-06-27T08:09:54.270Z,48.76
2017-06-27T08:10:56.159Z,48.47
2017-06-27T08:11:58.022Z,48.69
2017-06-27T08:12:59.892Z,49.34
2017-06-27T08:14:01.706Z,48.57
2017-06-27T08:15:03.537Z,48.79
2017-06-27T08:16:05.422Z,48.01
2017-06-27T08:17:07.297Z,48.76
2017-06-27T08:18:09.187Z,49.15
2017-06-27T08:19:23.330Z,49.90
2017-06-27T08:20:25.198Z,50.48
2017-06-27T08:21:27.067Z,50.67
2017-06-27T08:22:28.935Z,50.86
2017-06-27T08:23:30.750Z,50.12
2017-06-27T08:24:32.582Z,49.44
2017-06-27T08:25:34.474Z,49.05
2017-06-27T08:26:36.362Z,49.24
2017-06-27T08:27:38.233Z,49.12
2017-06-27T08:28:52.382Z,49.22
2017-06-27T08:29:54.273Z,49.99
2017-06-27T08:30:56.163Z,49.99
2017-06-27T08:31:58.054Z,49.41
2017-06-27T08:32:59.887Z,49.02
2017-06-27T08:34:01.719Z,49.54
2017-06-27T08:35:03.610Z,50.02
2017-06-27T08:36:05.504Z,50.12
2017-06-27T08:37:07.371Z,49.85
2017-06-27T08:38:21.520Z,49.17
2017-06-27T08:39:23.383Z,48.88
2017-06-27T08:40:25.254Z,49.07
2017-06-27T08:41:27.127Z,49.68
2017-06-27T08:42:28.953Z,49.49
2017-06-27T08:43:30.762Z,48.61
2017-06-27T08:44:32.628Z,47.84
2017-06-27T08:45:34.495Z,47.26
2017-06-27T08:46:36.363Z,47.38
2017-06-27T08:47:50.510Z,46.62
2017-06-27T08:48:52.401Z,46.33
2017-06-27T08:49:54.268Z,45.87
2017-06-27T08:50:56.134Z,45.12
2017-06-27T08:51:57.945Z,44.37
2017-06-27T08:52:59.759Z,44.46
2017-06-27T08:54:01.653Z,44.37
2017-06-27T08:55:03.549Z,44.37
2017-06-27T08:56:05.439Z,44.73
2017-06-27T08:57:19.586Z,45.02
2017-06-27T08:58:21.476Z,45.20
2017-06-27T08:59:23.348Z,45.39
2017-06-27T09:00:25.220Z,45.68
2017-06-27T09:01:27.029Z,45.51
2017-06-27T09:02:28.842Z,45.41
2017-06-27T09:03:30.720Z,45.21
2017-06-27T09:04:32.611Z,45.12
2017-06-27T09:05:34.510Z,45.12
2017-06-27T09:06:48.673Z,44.24
2017-06-27T09:07:50.561Z,43.76
2017-06-27T09:08:52.437Z,43.18
2017-06-27T09:09:54.310Z,43.37
2017-06-27T09:10:56.141Z,43.78
2017-06-27T09:11:57.956Z,43.59
2017-06-27T09:12:59.854Z,43.01
2017-06-27T09:14:01.744Z,42.71
2017-06-27T09:15:03.621Z,42.64
2017-06-27T09:16:17.786Z,42.54
2017-06-27T09:17:19.654Z,42.25
2017-06-27T09:18:21.548Z,42.44
2017-06-27T09:19:23.436Z,42.35
2017-06-27T09:20:25.253Z,41.77
2017-06-27T09:21:27.089Z,41.47
2017-06-27T09:22:28.957Z,41.77
2017-06-27T09:23:30.852Z,41.77
2017-06-27T09:24:32.742Z,42.64
2017-06-27T09:25:46.916Z,42.35
2017-06-27T09:26:48.803Z,42.05
2017-06-27T09:27:50.675Z,42.03
2017-06-27T09:28:52.544Z,42.05
2017-06-27T09:29:54.356Z,42.44
2017-06-27T09:30:56.197Z,42.25
2017-06-27T09:31:58.093Z,42.44
2017-06-27T09:32:59.979Z,42.54
2017-06-27T09:34:01.855Z,41.98
2017-06-27T09:35:16.021Z,41.13
2017-06-27T09:36:17.915Z,40.85
2017-06-27T09:37:19.814Z,40.27
2017-06-27T09:38:21.704Z,39.70
2017-06-27T09:39:23.544Z,39.12
2017-06-27T09:40:25.376Z,39.67
2017-06-27T09:41:27.270Z,40.64
2017-06-27T09:42:29.171Z,41.39
2017-06-27T09:43:31.059Z,42.56
2017-06-27T09:44:45.202Z,42.18
2017-06-27T09:45:47.087Z,41.69
2017-06-27T09:46:48.948Z,41.49
2017-06-27T09:47:50.842Z,41.39
2017-06-27T09:48:52.675Z,40.91
2017-06-27T09:49:54.492Z,41.67
2017-06-27T09:50:56.386Z,41.47
2017-06-27T09:51:58.221Z,41.55
2017-06-27T09:53:00.051Z,42.33
2017-06-27T09:54:14.249Z,42.03
2017-06-27T09:55:16.137Z,42.71
2017-06-27T09:56:18.005Z,42.91
2017-06-27T09:57:19.883Z,43.10
2017-06-27T09:58:21.719Z,42.71
2017-06-27T09:59:23.546Z,42.05
2017-06-27T10:00:25.426Z,41.28
2017-06-27T10:01:27.315Z,41.49
2017-06-27T10:02:29.189Z,41.28
2017-06-27T10:03:43.362Z,41.49
2017-06-27T10:04:45.256Z,41.30
2017-06-27T10:05:47.148Z,41.57
2017-06-27T10:06:49.023Z,42.35
2017-06-27T10:07:50.854Z,42.54
2017-06-27T10:08:52.667Z,42.25
2017-06-27T10:09:54.561Z,41.77
2017-06-27T10:10:56.430Z,41.64
2017-06-27T10:11:58.301Z,42.23
2017-06-27T10:13:12.449Z,42.52
2017-06-27T10:14:14.342Z,42.81
2017-06-27T10:15:16.227Z,42.71
2017-06-27T10:16:18.105Z,42.43
2017-06-27T10:17:19.937Z,42.25
2017-06-27T10:18:21.765Z,42.23
2017-06-27T10:19:23.641Z,43.20
2017-06-27T10:20:25.527Z,42.54
2017-06-27T10:21:27.399Z,42.54
2017-06-27T10:22:41.569Z,42.25
2017-06-27T10:23:43.456Z,42.35
2017-06-27T10:24:45.335Z,42.64
2017-06-27T10:25:47.226Z,42.15
2017-06-27T10:26:49.062Z,42.52
2017-06-27T10:27:50.894Z,42.52
2017-06-27T10:28:52.767Z,42.43
2017-06-27T10:29:54.660Z,42.69
2017-06-27T10:30:56.551Z,42.79
2017-06-27T10:32:10.701Z,42.79
2017-06-27T10:33:12.574Z,42.60
2017-06-27T10:34:14.466Z,43.45
2017-06-27T10:35:16.361Z,44.13
2017-06-27T10:36:18.194Z,43.93
2017-06-27T10:37:20.024Z,43.47
2017-06-27T10:38:21.896Z,43.08
2017-06-27T10:39:23.792Z,43.01
2017-06-27T10:40:25.682Z,43.40
2017-06-27T10:41:39.853Z,42.83
2017-06-27T10:42:41.739Z,42.25
2017-06-27T10:43:43.613Z,42.33
2017-06-27T10:44:45.483Z,41.67
2017-06-27T10:45:47.317Z,41.28
2017-06-27T10:46:49.134Z,41.16
2017-06-27T10:47:51.023Z,42.61
2017-06-27T10:48:52.912Z,42.13
2017-06-27T10:49:54.782Z,42.11
2017-06-27T10:51:08.931Z,42.23
2017-06-27T10:52:10.821Z,42.03
2017-06-27T10:53:12.716Z,41.74
2017-06-27T10:54:14.590Z,42.61
2017-06-27T10:55:16.426Z,42.61
2017-06-27T10:56:18.277Z,42.33
2017-06-27T10:57:20.123Z,42.03
2017-06-27T10:58:21.989Z,42.52
2017-06-27T10:59:23.867Z,42.91
2017-06-27T11:00:38.031Z,41.45
2017-06-27T11:01:39.920Z,41.45
2017-06-27T11:02:41.796Z,41.64
2017-06-27T11:03:43.660Z,42.40
2017-06-27T11:04:45.475Z,42.03
2017-06-27T11:05:47.287Z,42.61
2017-06-27T11:06:49.162Z,42.03
2017-06-27T11:07:51.052Z,41.38
2017-06-27T11:08:52.944Z,41.36
2017-06-27T11:10:07.111Z,41.64
2017-06-27T11:11:08.986Z,41.74
2017-06-27T11:12:10.877Z,41.26
2017-06-27T11:13:12.749Z,42.52
2017-06-27T11:14:14.585Z,42.13
2017-06-27T11:15:16.394Z,42.33
2017-06-27T11:16:18.263Z,42.43
2017-06-27T11:17:20.134Z,41.55
2017-06-27T11:18:22.000Z,41.08
2017-06-27T11:19:36.150Z,41.26
2017-06-27T11:20:38.041Z,41.64
2017-06-27T11:21:39.934Z,42.60
2017-06-27T11:22:41.806Z,42.40
2017-06-27T11:23:43.643Z,42.79
2017-06-27T11:24:45.477Z,43.47
2017-06-27T11:25:47.371Z,42.86
2017-06-27T11:26:49.260Z,43.45
2017-06-27T11:27:51.160Z,42.67
2017-06-27T11:29:05.329Z,42.86
2017-06-27T11:30:07.217Z,42.96
2017-06-27T11:31:09.090Z,43.45
2017-06-27T11:32:10.958Z,43.54
2017-06-27T11:33:12.774Z,43.43
2017-06-27T11:34:14.607Z,44.30
2017-06-27T11:35:16.476Z,45.07
2017-06-27T11:36:18.367Z,44.98
2017-06-27T11:37:20.233Z,45.07
2017-06-27T11:38:34.364Z,45.29
2017-06-27T11:39:36.249Z,44.15
2017-06-27T11:40:38.116Z,44.34
2017-06-27T11:41:39.991Z,44.05
2017-06-27T11:42:41.828Z,43.86
2017-06-27T11:43:43.658Z,44.24
2017-06-27T11:44:45.528Z,44.27
2017-06-27T11:45:47.392Z,43.98
2017-06-27T11:46:49.294Z,43.88
2017-06-27T11:48:03.473Z,43.49
2017-06-27T11:49:05.368Z,43.59
2017-06-27T11:50:07.263Z,43.40
2017-06-27T11:51:09.129Z,43.68
2017-06-27T11:52:10.941Z,42.60
2017-06-27T11:53:12.757Z,43.57
2017-06-27T11:54:14.629Z,43.66
2017-06-27T11:55:16.520Z,43.47
2017-06-27T11:56:18.410Z,43.76
2017-06-27T11:57:32.580Z,43.95
2017-06-27T11:58:34.463Z,44.24
2017-06-27T11:59:36.333Z,44.42
2017-06-27T12:00:38.206Z,45.17
2017-06-27T12:01:40.041Z,45.56
2017-06-27T12:02:41.873Z,46.24
2017-06-27T12:03:43.743Z,46.14
2017-06-27T12:04:45.635Z,46.14
2017-06-27T12:05:47.500Z,46.41
2017-06-27T12:07:01.669Z,47.28
2017-06-27T12:08:03.555Z,47.47
2017-06-27T12:09:05.429Z,47.57
2017-06-27T12:10:07.321Z,47.57
2017-06-27T12:11:09.154Z,47.28
2017-06-27T12:12:10.963Z,47.19
2017-06-27T12:13:12.852Z,47.47
2017-06-27T12:14:14.718Z,47.28
2017-06-27T12:15:16.590Z,47.77
2017-06-27T12:16:30.735Z,47.38
2017-06-27T12:17:32.623Z,47.47
2017-06-27T12:18:34.492Z,47.09
2017-06-27T12:19:36.361Z,47.47
2017-06-27T12:20:38.170Z,47.38
2017-06-27T12:21:39.983Z,47.79
2017-06-27T12:22:41.852Z,47.02
2017-06-27T12:23:43.742Z,47.23
2017-06-27T12:24:45.613Z,45.97
2017-06-27T12:25:59.782Z,45.48
2017-06-27T12:27:01.668Z,45.51
2017-06-27T12:28:03.546Z,45.21
2017-06-27T12:29:05.436Z,45.41
2017-06-27T12:30:07.269Z,45.34
2017-06-27T12:31:09.099Z,44.54
2017-06-27T12:32:10.974Z,43.27
2017-06-27T12:33:12.867Z,43.76
2017-06-27T12:34:14.760Z,43.95
2017-06-27T12:35:28.924Z,44.83
2017-06-27T12:36:30.810Z,45.29
2017-06-27T12:37:32.686Z,45.87
2017-06-27T12:38:34.581Z,46.26
2017-06-27T12:39:36.416Z,46.07
2017-06-27T12:40:38.248Z,46.65
2017-06-27T12:41:40.166Z,47.23
2017-06-27T12:42:42.064Z,47.33
2017-06-27T12:43:43.936Z,47.20
2017-06-27T12:44:58.105Z,47.60
2017-06-27T12:45:59.990Z,48.18
2017-06-27T12:47:01.868Z,48.30
2017-06-27T12:48:03.786Z,48.00
2017-06-27T12:49:05.641Z,47.62
2017-06-27T12:50:07.508Z,47.69
2017-06-27T12:51:09.481Z,48.74
2017-06-27T12:52:11.397Z,49.99
2017-06-27T12:53:13.309Z,51.06
2017-06-27T12:54:27.483Z,50.96
2017-06-27T12:55:29.350Z,50.65
2017-06-27T12:56:31.259Z,50.16
2017-06-27T12:57:33.148Z,50.55
2017-06-27T12:58:34.959Z,50.84
2017-06-27T12:59:36.839Z,51.64
2017-06-27T13:00:38.749Z,51.16
2017-06-27T13:01:40.639Z,50.67
2017-06-27T13:02:42.528Z,51.04
2017-06-27T13:03:56.707Z,51.35
2017-06-27T13:04:58.643Z,50.96
2017-06-27T13:06:00.578Z,50.67
2017-06-27T13:07:02.467Z,50.57
2017-06-27T13:08:04.329Z,50.67
2017-06-27T13:09:06.177Z,51.45
2017-06-27T13:10:08.103Z,51.84
2017-06-27T13:11:10.057Z,51.86
2017-06-27T13:12:12.021Z,51.67
2017-06-27T13:13:26.203Z,51.06
2017-06-27T13:14:28.084Z,51.86
2017-06-27T13:15:30.036Z,51.76
2017-06-27T13:16:32.012Z,52.06
2017-06-27T13:17:33.807Z,52.25
2017-06-27T13:18:35.618Z,52.06
2017-06-27T13:19:37.512Z,51.76
2017-06-27T13:20:39.401Z,52.86
2017-06-27T13:21:41.354Z,52.37
2017-06-27T13:22:55.589Z,51.76
2017-06-27T13:23:57.447Z,51.76
2017-06-27T13:24:59.313Z,51.86
2017-06-27T13:26:01.178Z,52.15
2017-06-27T13:27:02.989Z,52.56
2017-06-27T13:28:04.797Z,51.89
2017-06-27T13:29:06.665Z,51.89
2017-06-27T13:30:08.537Z,51.79
2017-06-27T13:31:10.423Z,51.89
2017-06-27T13:32:24.588Z,51.98
2017-06-27T13:33:26.456Z,52.66
2017-06-27T13:34:28.327Z,52.18